OOCL Utah — VRNR5 — position and weather

sailwx.info

Track history (hours):
 
Tides and Currents Weather Stations Pressure Air Temp Water Temp Dewpoint Dewpoint Depression Visibility Wind Speed Wind Dir Waves Ship Positions

OOCL Utah

Last reported at 2017-Dec-16 11:00 UTC. Time now 2017-Dec-16 11:17 UTC.
Position N 09°23' W 079°54'.

Length 335 m; draft 12.7 m.

Type: Cargo ship. MMSI: 477067900.

Date/timePositionNaut miles runAvg speedWind from/ knotsBaromVisibWave heightAir tempDewpointWater temp
2017-Dec-16 11:00N 09°23' W 079°54'3 6.0
2017-Dec-16 10:30N 09°26' W 079°53'1 1.4
2017-Dec-16 10:00N 09°26' W 079°54'5 9.7
2017-Dec-16 09:30N 09°31' W 079°53'816.3
2017-Dec-16 09:00N 09°38' W 079°50'917.6
2017-Dec-16 08:30N 09°46' W 079°47'  
2017-Dec-11 19:33N 40°23' W 073°44'0 9.8
2017-Dec-11 19:30N 40°23' W 073°45'5 7.9
2017-Dec-11 18:56N 40°26' W 073°49'3 8.1
2017-Dec-11 18:30N 40°28' W 073°52'611.1
2017-Dec-11 17:59N 40°31' W 073°59'713.9
2017-Dec-11 17:30N 40°37' W 074°03'4 7.3
2017-Dec-11 17:00N 40°39' W 074°07'2 3.1
2017-Dec-11 16:30N 40°40' W 074°08'1 2.2
2017-Dec-11 15:58N 40°41' W 074°09'0 0.0
2017-Dec-11 15:28N 40°41' W 074°09'0 0.0
2017-Dec-11 14:58N 40°41' W 074°09'0 0.0
2017-Dec-11 14:28N 40°41' W 074°09'0 0.0
2017-Dec-11 13:58N 40°41' W 074°09'0 0.0
2017-Dec-11 13:25N 40°41' W 074°09'0 0.0
2017-Dec-11 12:58N 40°41' W 074°09'0 0.0
2017-Dec-11 12:28N 40°41' W 074°09'0 0.1
2017-Dec-11 11:55N 40°41' W 074°09'0 0.1
2017-Dec-11 11:28N 40°41' W 074°09'0 0.0
2017-Dec-11 10:58N 40°41' W 074°09'0 0.0
2017-Dec-11 10:28N 40°41' W 074°09'0 0.0
2017-Dec-11 09:58N 40°41' W 074°09'0 0.0
2017-Dec-11 09:28N 40°41' W 074°09'0 0.0
2017-Dec-11 08:55N 40°41' W 074°09'0 0.0
2017-Dec-11 08:28N 40°41' W 074°09'0 0.0
2017-Dec-11 07:58N 40°41' W 074°09'0 0.0
2017-Dec-11 07:28N 40°41' W 074°09'0 0.0
2017-Dec-11 06:58N 40°41' W 074°09'0 0.0
2017-Dec-11 06:28N 40°41' W 074°09'0 0.0
2017-Dec-11 05:58N 40°41' W 074°09'0 0.0
2017-Dec-11 05:28N 40°41' W 074°09'0 0.0
2017-Dec-11 04:58N 40°41' W 074°09'0 0.0
2017-Dec-11 04:28N 40°41' W 074°09'0 0.0
2017-Dec-11 03:58N 40°41' W 074°09'0 0.0
2017-Dec-11 03:28N 40°41' W 074°09'0 0.0
2017-Dec-11 02:55N 40°41' W 074°09'0 0.0
2017-Dec-11 02:28N 40°41' W 074°09'0 0.0
2017-Dec-11 01:55N 40°41' W 074°09'0 0.0
2017-Dec-11 01:28N 40°41' W 074°09'0 0.0
2017-Dec-11 00:58N 40°41' W 074°09'0 0.0
2017-Dec-11 00:28N 40°41' W 074°09'0 0.0
2017-Dec-10 23:55N 40°41' W 074°09'0 0.0
2017-Dec-10 23:28N 40°41' W 074°09'0 0.0
2017-Dec-10 22:58N 40°41' W 074°09'0 0.0
2017-Dec-10 22:28N 40°41' W 074°09'0 0.0
2017-Dec-10 21:58N 40°41' W 074°09'0 0.0
2017-Dec-10 21:28N 40°41' W 074°09'0 0.1
2017-Dec-10 20:58N 40°41' W 074°09'0 0.0
2017-Dec-10 20:28N 40°41' W 074°09'0 0.0
2017-Dec-10 19:58N 40°41' W 074°09'0 0.0
2017-Dec-10 19:28N 40°41' W 074°09'0 0.0
2017-Dec-10 18:58N 40°41' W 074°09'0 0.0
2017-Dec-10 18:28N 40°41' W 074°09'0 0.0
2017-Dec-10 17:58N 40°41' W 074°09'0 0.0
2017-Dec-10 17:28N 40°41' W 074°09'0 0.0
2017-Dec-10 16:58N 40°41' W 074°09'0 0.0
2017-Dec-10 16:28N 40°41' W 074°09'0 0.0
2017-Dec-10 15:58N 40°41' W 074°09'0 0.0
2017-Dec-10 15:25N 40°41' W 074°09'0 0.0
2017-Dec-10 14:58N 40°41' W 074°09'0 0.0
2017-Dec-10 14:30N 40°41' W 074°09'1 1.7
2017-Dec-10 14:00N 40°40' W 074°08'2 3.5
2017-Dec-10 13:30N 40°39' W 074°09'3 5.0
2017-Dec-10 13:00N 40°39' W 074°05'3 5.2
2017-Dec-10 12:30N 40°37' W 074°03'510.1
2017-Dec-10 12:00N 40°32' W 074°01'511.0
2017-Dec-10 11:31N 40°29' W 073°55'5 9.5
2017-Dec-10 11:01N 40°27' W 073°50'3 6.1
2017-Dec-10 10:30N 40°25' W 073°47'4 8.8
2017-Dec-10 10:00N 40°21' W 073°46'5 9.7
2017-Dec-10 09:30N 40°16' W 073°46'2914.4
2017-Dec-10 07:29N 39°47' W 073°43'  
Track history (hours):
 
Tides and Currents Weather Stations Pressure Air Temp Water Temp Dewpoint Dewpoint Depression Visibility Wind Speed Wind Dir Waves Ship Positions

OOCL Utah

Last reported at 2017-Dec-16 11:00 UTC. Time now 2017-Dec-16 11:17 UTC.
Position N 09°23' W 079°54'.

Length 335 m; draft 12.7 m.

Type: Cargo ship. MMSI: 477067900.

Date/timePositionNaut miles runAvg speedWind from/ knotsBaromVisibWave heightAir tempDewpointWater temp
2017-Dec-16 11:00N 09°23' W 079°54'3 6.0
2017-Dec-16 10:30N 09°26' W 079°53'1 1.4
2017-Dec-16 10:00N 09°26' W 079°54'5 9.7
2017-Dec-16 09:30N 09°31' W 079°53'816.3
2017-Dec-16 09:00N 09°38' W 079°50'917.6
2017-Dec-16 08:30N 09°46' W 079°47'  
2017-Dec-11 19:33N 40°23' W 073°44'0 9.8
2017-Dec-11 19:30N 40°23' W 073°45'5 7.9
2017-Dec-11 18:56N 40°26' W 073°49'3 8.1
2017-Dec-11 18:30N 40°28' W 073°52'611.1
2017-Dec-11 17:59N 40°31' W 073°59'713.9
2017-Dec-11 17:30N 40°37' W 074°03'4 7.3
2017-Dec-11 17:00N 40°39' W 074°07'2 3.1
2017-Dec-11 16:30N 40°40' W 074°08'1 2.2
2017-Dec-11 15:58N 40°41' W 074°09'0 0.0
2017-Dec-11 15:28N 40°41' W 074°09'0 0.0
2017-Dec-11 14:58N 40°41' W 074°09'0 0.0
2017-Dec-11 14:28N 40°41' W 074°09'0 0.0
2017-Dec-11 13:58N 40°41' W 074°09'0 0.0
2017-Dec-11 13:25N 40°41' W 074°09'0 0.0
2017-Dec-11 12:58N 40°41' W 074°09'0 0.0
2017-Dec-11 12:28N 40°41' W 074°09'0 0.1
2017-Dec-11 11:55N 40°41' W 074°09'0 0.1
2017-Dec-11 11:28N 40°41' W 074°09'0 0.0
2017-Dec-11 10:58N 40°41' W 074°09'0 0.0
2017-Dec-11 10:28N 40°41' W 074°09'0 0.0
2017-Dec-11 09:58N 40°41' W 074°09'0 0.0
2017-Dec-11 09:28N 40°41' W 074°09'0 0.0
2017-Dec-11 08:55N 40°41' W 074°09'0 0.0
2017-Dec-11 08:28N 40°41' W 074°09'0 0.0
2017-Dec-11 07:58N 40°41' W 074°09'0 0.0
2017-Dec-11 07:28N 40°41' W 074°09'0 0.0
2017-Dec-11 06:58N 40°41' W 074°09'0 0.0
2017-Dec-11 06:28N 40°41' W 074°09'0 0.0
2017-Dec-11 05:58N 40°41' W 074°09'0 0.0
2017-Dec-11 05:28N 40°41' W 074°09'0 0.0
2017-Dec-11 04:58N 40°41' W 074°09'0 0.0
2017-Dec-11 04:28N 40°41' W 074°09'0 0.0
2017-Dec-11 03:58N 40°41' W 074°09'0 0.0
2017-Dec-11 03:28N 40°41' W 074°09'0 0.0
2017-Dec-11 02:55N 40°41' W 074°09'0 0.0
2017-Dec-11 02:28N 40°41' W 074°09'0 0.0
2017-Dec-11 01:55N 40°41' W 074°09'0 0.0
2017-Dec-11 01:28N 40°41' W 074°09'0 0.0
2017-Dec-11 00:58N 40°41' W 074°09'0 0.0
2017-Dec-11 00:28N 40°41' W 074°09'0 0.0
2017-Dec-10 23:55N 40°41' W 074°09'0 0.0
2017-Dec-10 23:28N 40°41' W 074°09'0 0.0
2017-Dec-10 22:58N 40°41' W 074°09'0 0.0
2017-Dec-10 22:28N 40°41' W 074°09'0 0.0
2017-Dec-10 21:58N 40°41' W 074°09'0 0.0
2017-Dec-10 21:28N 40°41' W 074°09'0 0.1
2017-Dec-10 20:58N 40°41' W 074°09'0 0.0
2017-Dec-10 20:28N 40°41' W 074°09'0 0.0
2017-Dec-10 19:58N 40°41' W 074°09'0 0.0
2017-Dec-10 19:28N 40°41' W 074°09'0 0.0
2017-Dec-10 18:58N 40°41' W 074°09'0 0.0
2017-Dec-10 18:28N 40°41' W 074°09'0 0.0
2017-Dec-10 17:58N 40°41' W 074°09'0 0.0
2017-Dec-10 17:28N 40°41' W 074°09'0 0.0
2017-Dec-10 16:58N 40°41' W 074°09'0 0.0
2017-Dec-10 16:28N 40°41' W 074°09'0 0.0
2017-Dec-10 15:58N 40°41' W 074°09'0 0.0
2017-Dec-10 15:25N 40°41' W 074°09'0 0.0
2017-Dec-10 14:58N 40°41' W 074°09'0 0.0
2017-Dec-10 14:30N 40°41' W 074°09'1 1.7
2017-Dec-10 14:00N 40°40' W 074°08'2 3.5
2017-Dec-10 13:30N 40°39' W 074°09'3 5.0
2017-Dec-10 13:00N 40°39' W 074°05'3 5.2
2017-Dec-10 12:30N 40°37' W 074°03'510.1
2017-Dec-10 12:00N 40°32' W 074°01'511.0
2017-Dec-10 11:31N 40°29' W 073°55'5 9.5
2017-Dec-10 11:01N 40°27' W 073°50'3 6.1
2017-Dec-10 10:30N 40°25' W 073°47'4 8.8
2017-Dec-10 10:00N 40°21' W 073°46'5 9.7
2017-Dec-10 09:30N 40°16' W 073°46'2914.4
2017-Dec-10 07:29N 39°47' W 073°43'  

Dump ship's entire track history